sensor_id;sensor_type;location;lat;lon;timestamp;pressure;altitude;pressure_sealevel;temperature
76476;BMP280;65308;50.078;14.854;2023-02-28T00:01:13;100276.56;;;1.86
76476;BMP280;65308;50.078;14.854;2023-02-28T00:03:43;100272.84;;;1.91
76476;BMP280;65308;50.078;14.854;2023-02-28T00:06:09;100272.84;;;1.91
76476;BMP280;65308;50.078;14.854;2023-02-28T00:08:36;100264.69;;;1.96
76476;BMP280;65308;50.078;14.854;2023-02-28T00:11:05;100273.84;;;2.02
76476;BMP280;65308;50.078;14.854;2023-02-28T00:13:34;100264.00;;;1.99
76476;BMP280;65308;50.078;14.854;2023-02-28T00:16:02;100264.31;;;1.98
76476;BMP280;65308;50.078;14.854;2023-02-28T00:18:29;100256.75;;;1.77
76476;BMP280;65308;50.078;14.854;2023-02-28T00:20:57;100269.41;;;1.87
76476;BMP280;65308;50.078;14.854;2023-02-28T00:23:24;100268.28;;;1.88
76476;BMP280;65308;50.078;14.854;2023-02-28T00:25:53;100261.91;;;1.89
76476;BMP280;65308;50.078;14.854;2023-02-28T00:28:20;100267.13;;;1.85
76476;BMP280;65308;50.078;14.854;2023-02-28T00:30:47;100267.88;;;1.86
76476;BMP280;65308;50.078;14.854;2023-02-28T00:33:14;100279.56;;;1.85
76476;BMP280;65308;50.078;14.854;2023-02-28T00:40:53;100268.09;;;1.77
76476;BMP280;65308;50.078;14.854;2023-02-28T00:43:20;100268.00;;;1.74
76476;BMP280;65308;50.078;14.854;2023-02-28T00:45:47;100265.69;;;1.72
76476;BMP280;65308;50.078;14.854;2023-02-28T00:48:13;100272.53;;;1.73
76476;BMP280;65308;50.078;14.854;2023-02-28T00:50:41;100258.75;;;1.64
76476;BMP280;65308;50.078;14.854;2023-02-28T00:53:08;100270.16;;;1.68
76476;BMP280;65308;50.078;14.854;2023-02-28T00:55:34;100269.72;;;1.66
76476;BMP280;65308;50.078;14.854;2023-02-28T00:58:03;100273.81;;;1.63
76476;BMP280;65308;50.078;14.854;2023-02-28T01:00:29;100265.81;;;1.60
76476;BMP280;65308;50.078;14.854;2023-02-28T01:02:56;100270.75;;;1.61
76476;BMP280;65308;50.078;14.854;2023-02-28T01:05:23;100260.09;;;1.58
76476;BMP280;65308;50.078;14.854;2023-02-28T01:07:50;100263.03;;;1.53
76476;BMP280;65308;50.078;14.854;2023-02-28T01:12:50;100268.69;;;1.51
76476;BMP280;65308;50.078;14.854;2023-02-28T01:15:18;100264.81;;;1.48
76476;BMP280;65308;50.078;14.854;2023-02-28T01:17:45;100270.19;;;1.52
76476;BMP280;65308;50.078;14.854;2023-02-28T01:20:12;100262.13;;;1.45
76476;BMP280;65308;50.078;14.854;2023-02-28T01:22:39;100259.50;;;1.45
76476;BMP280;65308;50.078;14.854;2023-02-28T01:25:06;100266.22;;;1.42
76476;BMP280;65308;50.078;14.854;2023-02-28T01:27:33;100269.53;;;1.39
76476;BMP280;65308;50.078;14.854;2023-02-28T01:30:04;100259.66;;;1.36
76476;BMP280;65308;50.078;14.854;2023-02-28T01:32:35;100257.13;;;1.40
76476;BMP280;65308;50.078;14.854;2023-02-28T01:35:06;100258.03;;;1.32
76476;BMP280;65308;50.078;14.854;2023-02-28T01:37:33;100262.34;;;1.20
76476;BMP280;65308;50.078;14.854;2023-02-28T01:39:59;100258.09;;;1.00
76476;BMP280;65308;50.078;14.854;2023-02-28T01:42:26;100260.22;;;0.94
76476;BMP280;65308;50.078;14.854;2023-02-28T01:45:14;100254.78;;;0.43
76476;BMP280;65308;50.078;14.854;2023-02-28T01:47:45;100265.72;;;0.29
76476;BMP280;65308;50.078;14.854;2023-02-28T01:50:15;100262.19;;;0.09
76476;BMP280;65308;50.078;14.854;2023-02-28T01:52:43;100265.34;;;0.15
76476;BMP280;65308;50.078;14.854;2023-02-28T01:55:13;100263.50;;;0.31
76476;BMP280;65308;50.078;14.854;2023-02-28T01:57:52;100255.94;;;0.14
76476;BMP280;65308;50.078;14.854;2023-02-28T02:00:24;100252.63;;;0.17
76476;BMP280;65308;50.078;14.854;2023-02-28T02:02:55;100247.78;;;0.19
76476;BMP280;65308;50.078;14.854;2023-02-28T02:05:25;100251.97;;;0.08
76476;BMP280;65308;50.078;14.854;2023-02-28T02:07:55;100246.44;;;-0.15
76476;BMP280;65308;50.078;14.854;2023-02-28T02:10:27;100248.34;;;-0.28
76476;BMP280;65308;50.078;14.854;2023-02-28T02:13:08;100252.47;;;-0.27
76476;BMP280;65308;50.078;14.854;2023-02-28T02:15:40;100247.47;;;-0.44
76476;BMP280;65308;50.078;14.854;2023-02-28T02:18:15;100239.38;;;-0.64
76476;BMP280;65308;50.078;14.854;2023-02-28T02:21:12;100236.84;;;-0.73
76476;BMP280;65308;50.078;14.854;2023-02-28T02:23:54;100243.34;;;-0.82
76476;BMP280;65308;50.078;14.854;2023-02-28T02:26:37;100250.13;;;-0.69
76476;BMP280;65308;50.078;14.854;2023-02-28T02:29:26;100240.41;;;-0.81
76476;BMP280;65308;50.078;14.854;2023-02-28T02:32:22;100248.78;;;-0.75
76476;BMP280;65308;50.078;14.854;2023-02-28T02:35:01;100238.97;;;-0.91
76476;BMP280;65308;50.078;14.854;2023-02-28T02:37:36;100248.47;;;-0.98
76476;BMP280;65308;50.078;14.854;2023-02-28T02:40:10;100245.00;;;-0.90
76476;BMP280;65308;50.078;14.854;2023-02-28T02:42:45;100238.22;;;-1.24
76476;BMP280;65308;50.078;14.854;2023-02-28T02:45:19;100247.66;;;-1.36
76476;BMP280;65308;50.078;14.854;2023-02-28T02:47:48;100244.16;;;-1.48
76476;BMP280;65308;50.078;14.854;2023-02-28T02:50:21;100239.31;;;-1.38
76476;BMP280;65308;50.078;14.854;2023-02-28T02:52:51;100242.38;;;-1.36
76476;BMP280;65308;50.078;14.854;2023-02-28T02:55:20;100245.25;;;-1.28
76476;BMP280;65308;50.078;14.854;2023-02-28T02:57:51;100241.31;;;-1.22
76476;BMP280;65308;50.078;14.854;2023-02-28T03:00:23;100243.31;;;-1.19
76476;BMP280;65308;50.078;14.854;2023-02-28T03:02:52;100244.56;;;-1.38
76476;BMP280;65308;50.078;14.854;2023-02-28T03:05:21;100245.69;;;-1.26
76476;BMP280;65308;50.078;14.854;2023-02-28T03:07:50;100252.91;;;-1.36
76476;BMP280;65308;50.078;14.854;2023-02-28T03:10:29;100249.94;;;-1.34
76476;BMP280;65308;50.078;14.854;2023-02-28T03:15:58;100251.06;;;-1.23
76476;BMP280;65308;50.078;14.854;2023-02-28T03:18:31;100246.78;;;-1.15
76476;BMP280;65308;50.078;14.854;2023-02-28T03:21:08;100251.81;;;-1.22
76476;BMP280;65308;50.078;14.854;2023-02-28T03:23:48;100251.94;;;-1.19
76476;BMP280;65308;50.078;14.854;2023-02-28T03:26:19;100242.88;;;-1.21
76476;BMP280;65308;50.078;14.854;2023-02-28T03:28:52;100249.78;;;-1.17
76476;BMP280;65308;50.078;14.854;2023-02-28T03:31:26;100254.69;;;-1.15
76476;BMP280;65308;50.078;14.854;2023-02-28T03:33:59;100252.84;;;-1.15
76476;BMP280;65308;50.078;14.854;2023-02-28T03:36:30;100253.47;;;-1.18
76476;BMP280;65308;50.078;14.854;2023-02-28T03:39:04;100254.88;;;-1.20
76476;BMP280;65308;50.078;14.854;2023-02-28T03:41:35;100243.50;;;-1.24
76476;BMP280;65308;50.078;14.854;2023-02-28T03:44:07;100245.03;;;-1.23
76476;BMP280;65308;50.078;14.854;2023-02-28T03:46:42;100241.59;;;-1.36
76476;BMP280;65308;50.078;14.854;2023-02-28T03:49:17;100242.59;;;-1.41
76476;BMP280;65308;50.078;14.854;2023-02-28T03:51:47;100242.72;;;-1.37
76476;BMP280;65308;50.078;14.854;2023-02-28T03:54:17;100241.22;;;-1.47
76476;BMP280;65308;50.078;14.854;2023-02-28T03:56:50;100253.16;;;-1.49
76476;BMP280;65308;50.078;14.854;2023-02-28T03:59:21;100251.25;;;-1.82
76476;BMP280;65308;50.078;14.854;2023-02-28T04:01:49;100252.91;;;-1.78
76476;BMP280;65308;50.078;14.854;2023-02-28T04:04:19;100252.84;;;-1.69
76476;BMP280;65308;50.078;14.854;2023-02-28T04:09:17;100236.75;;;-1.67
76476;BMP280;65308;50.078;14.854;2023-02-28T04:11:44;100251.34;;;-1.58
76476;BMP280;65308;50.078;14.854;2023-02-28T04:14:11;100255.84;;;-1.58
76476;BMP280;65308;50.078;14.854;2023-02-28T04:16:41;100248.31;;;-1.60
76476;BMP280;65308;50.078;14.854;2023-02-28T04:19:09;100248.41;;;-1.56
76476;BMP280;65308;50.078;14.854;2023-02-28T04:21:37;100252.75;;;-1.60
76476;BMP280;65308;50.078;14.854;2023-02-28T04:24:10;100250.34;;;-1.65
76476;BMP280;65308;50.078;14.854;2023-02-28T04:26:42;100260.09;;;-1.66
76476;BMP280;65308;50.078;14.854;2023-02-28T04:29:12;100254.84;;;-1.66
76476;BMP280;65308;50.078;14.854;2023-02-28T04:34:08;100258.41;;;-1.70
76476;BMP280;65308;50.078;14.854;2023-02-28T04:36:35;100252.59;;;-1.97
76476;BMP280;65308;50.078;14.854;2023-02-28T04:39:02;100264.44;;;-1.91
76476;BMP280;65308;50.078;14.854;2023-02-28T04:41:30;100262.97;;;-1.80
76476;BMP280;65308;50.078;14.854;2023-02-28T04:43:59;100262.41;;;-1.85
76476;BMP280;65308;50.078;14.854;2023-02-28T04:46:25;100260.28;;;-1.92
76476;BMP280;65308;50.078;14.854;2023-02-28T04:53:52;100264.81;;;-2.01
76476;BMP280;65308;50.078;14.854;2023-02-28T04:56:25;100265.31;;;-2.08
76476;BMP280;65308;50.078;14.854;2023-02-28T04:58:55;100269.16;;;-2.05
76476;BMP280;65308;50.078;14.854;2023-02-28T05:01:28;100262.34;;;-1.98
76476;BMP280;65308;50.078;14.854;2023-02-28T05:03:56;100268.34;;;-1.97
76476;BMP280;65308;50.078;14.854;2023-02-28T05:06:25;100268.47;;;-1.93
76476;BMP280;65308;50.078;14.854;2023-02-28T05:08:56;100271.09;;;-1.93
76476;BMP280;65308;50.078;14.854;2023-02-28T05:11:28;100278.34;;;-1.90
76476;BMP280;65308;50.078;14.854;2023-02-28T05:14:09;100279.16;;;-1.99
76476;BMP280;65308;50.078;14.854;2023-02-28T05:16:38;100278.25;;;-2.03
76476;BMP280;65308;50.078;14.854;2023-02-28T05:19:05;100276.22;;;-1.97
76476;BMP280;65308;50.078;14.854;2023-02-28T05:21:34;100284.41;;;-1.99
76476;BMP280;65308;50.078;14.854;2023-02-28T05:24:03;100285.63;;;-1.96
76476;BMP280;65308;50.078;14.854;2023-02-28T05:26:30;100292.28;;;-1.99
76476;BMP280;65308;50.078;14.854;2023-02-28T05:29:00;100284.59;;;-2.04
76476;BMP280;65308;50.078;14.854;2023-02-28T05:31:51;100292.22;;;-2.11
76476;BMP280;65308;50.078;14.854;2023-02-28T05:39:29;100289.16;;;-2.51
76476;BMP280;65308;50.078;14.854;2023-02-28T05:41:58;100306.41;;;-2.50
76476;BMP280;65308;50.078;14.854;2023-02-28T05:44:29;100305.47;;;-2.46
76476;BMP280;65308;50.078;14.854;2023-02-28T05:52:04;100296.00;;;-2.29
76476;BMP280;65308;50.078;14.854;2023-02-28T05:54:33;100320.22;;;-2.24
76476;BMP280;65308;50.078;14.854;2023-02-28T05:57:01;100309.09;;;-2.21
76476;BMP280;65308;50.078;14.854;2023-02-28T05:59:31;100312.94;;;-2.18
76476;BMP280;65308;50.078;14.854;2023-02-28T06:02:00;100321.09;;;-2.20
76476;BMP280;65308;50.078;14.854;2023-02-28T06:04:28;100319.81;;;-2.34
76476;BMP280;65308;50.078;14.854;2023-02-28T06:06:55;100320.22;;;-2.24
76476;BMP280;65308;50.078;14.854;2023-02-28T06:27:09;100337.94;;;-1.70
76476;BMP280;65308;50.078;14.854;2023-02-28T07:20:44;100418.09;;;13.47
76476;BMP280;65308;50.078;14.854;2023-02-28T07:23:34;100422.63;;;14.61
76476;BMP280;65308;50.078;14.854;2023-02-28T07:49:47;100438.66;;;13.41
76476;BMP280;65308;50.078;14.854;2023-02-28T07:52:28;100437.63;;;13.89
76476;BMP280;65308;50.078;14.854;2023-02-28T07:55:00;100437.97;;;13.37
76476;BMP280;65308;50.078;14.854;2023-02-28T08:00:14;100430.63;;;12.01
76476;BMP280;65308;50.078;14.854;2023-02-28T08:02:51;100422.84;;;11.50
76476;BMP280;65308;50.078;14.854;2023-02-28T08:22:53;100407.59;;;8.66
76476;BMP280;65308;50.078;14.854;2023-02-28T08:25:30;100408.94;;;10.72
76476;BMP280;65308;50.078;14.854;2023-02-28T08:28:03;100410.63;;;10.63
76476;BMP280;65308;50.078;14.854;2023-02-28T08:30:46;100404.94;;;9.79
76476;BMP280;65308;50.078;14.854;2023-02-28T08:33:27;100399.88;;;9.20
76476;BMP280;65308;50.078;14.854;2023-02-28T08:41:02;100408.19;;;7.30
76476;BMP280;65308;50.078;14.854;2023-02-28T08:43:34;100399.84;;;6.63
76476;BMP280;65308;50.078;14.854;2023-02-28T08:46:03;100398.53;;;6.00
76476;BMP280;65308;50.078;14.854;2023-02-28T08:48:31;100404.19;;;5.95
76476;BMP280;65308;50.078;14.854;2023-02-28T08:51:04;100398.47;;;5.86
76476;BMP280;65308;50.078;14.854;2023-02-28T08:53:32;100401.25;;;5.38
76476;BMP280;65308;50.078;14.854;2023-02-28T08:58:30;100399.16;;;5.17
76476;BMP280;65308;50.078;14.854;2023-02-28T09:00:57;100405.59;;;4.71
76476;BMP280;65308;50.078;14.854;2023-02-28T09:03:23;100392.09;;;4.16
76476;BMP280;65308;50.078;14.854;2023-02-28T09:05:55;100392.34;;;4.38
76476;BMP280;65308;50.078;14.854;2023-02-28T09:08:24;100396.66;;;4.16
76476;BMP280;65308;50.078;14.854;2023-02-28T09:10:54;100403.66;;;4.65
76476;BMP280;65308;50.078;14.854;2023-02-28T09:13:37;100387.03;;;4.34
76476;BMP280;65308;50.078;14.854;2023-02-28T09:16:06;100385.56;;;4.77
76476;BMP280;65308;50.078;14.854;2023-02-28T09:18:34;100398.44;;;5.20
76476;BMP280;65308;50.078;14.854;2023-02-28T09:21:02;100394.00;;;4.49
76476;BMP280;65308;50.078;14.854;2023-02-28T09:23:30;100394.31;;;4.44
76476;BMP280;65308;50.078;14.854;2023-02-28T09:25:57;100390.22;;;4.88
76476;BMP280;65308;50.078;14.854;2023-02-28T09:28:23;100384.09;;;6.01
76476;BMP280;65308;50.078;14.854;2023-02-28T09:30:53;100389.47;;;6.12
76476;BMP280;65308;50.078;14.854;2023-02-28T09:33:22;100390.34;;;5.57
76476;BMP280;65308;50.078;14.854;2023-02-28T09:35:50;100386.53;;;5.58
76476;BMP280;65308;50.078;14.854;2023-02-28T09:38:17;100380.34;;;5.33
76476;BMP280;65308;50.078;14.854;2023-02-28T09:40:55;100389.03;;;4.82
76476;BMP280;65308;50.078;14.854;2023-02-28T09:43:39;100393.81;;;5.13
76476;BMP280;65308;50.078;14.854;2023-02-28T09:46:14;100389.91;;;5.48
76476;BMP280;65308;50.078;14.854;2023-02-28T09:48:45;100384.50;;;5.34
76476;BMP280;65308;50.078;14.854;2023-02-28T09:51:27;100397.94;;;4.63
76476;BMP280;65308;50.078;14.854;2023-02-28T09:53:56;100400.00;;;4.43
76476;BMP280;65308;50.078;14.854;2023-02-28T09:56:25;100395.19;;;4.22
76476;BMP280;65308;50.078;14.854;2023-02-28T09:58:56;100385.56;;;4.77
76476;BMP280;65308;50.078;14.854;2023-02-28T10:04:03;100394.09;;;3.66
76476;BMP280;65308;50.078;14.854;2023-02-28T10:06:35;100404.59;;;3.85
76476;BMP280;65308;50.078;14.854;2023-02-28T10:09:09;100389.16;;;4.21
76476;BMP280;65308;50.078;14.854;2023-02-28T10:11:39;100386.69;;;4.76
76476;BMP280;65308;50.078;14.854;2023-02-28T10:14:13;100401.44;;;5.74
76476;BMP280;65308;50.078;14.854;2023-02-28T10:16:46;100387.56;;;5.36
76476;BMP280;65308;50.078;14.854;2023-02-28T10:19:22;100421.88;;;5.11
76476;BMP280;65308;50.078;14.854;2023-02-28T10:21:55;100397.19;;;4.66
76476;BMP280;65308;50.078;14.854;2023-02-28T10:24:28;100394.56;;;3.98
76476;BMP280;65308;50.078;14.854;2023-02-28T10:27:00;100390.19;;;4.13
76476;BMP280;65308;50.078;14.854;2023-02-28T10:29:28;100388.41;;;4.24
76476;BMP280;65308;50.078;14.854;2023-02-28T10:32:01;100384.53;;;4.15
76476;BMP280;65308;50.078;14.854;2023-02-28T10:34:30;100391.31;;;4.12
76476;BMP280;65308;50.078;14.854;2023-02-28T10:36:58;100385.06;;;3.97
76476;BMP280;65308;50.078;14.854;2023-02-28T10:39:37;100384.53;;;3.84
76476;BMP280;65308;50.078;14.854;2023-02-28T10:42:05;100380.81;;;3.93
76476;BMP280;65308;50.078;14.854;2023-02-28T10:44:44;100382.41;;;3.71
76476;BMP280;65308;50.078;14.854;2023-02-28T10:47:15;100382.22;;;4.13
76476;BMP280;65308;50.078;14.854;2023-02-28T10:49:49;100378.47;;;4.89
76476;BMP280;65308;50.078;14.854;2023-02-28T10:52:33;100367.94;;;4.99
76476;BMP280;65308;50.078;14.854;2023-02-28T10:55:19;100394.28;;;5.22
76476;BMP280;65308;50.078;14.854;2023-02-28T10:57:46;100370.97;;;5.50
76476;BMP280;65308;50.078;14.854;2023-02-28T11:00:19;100373.69;;;5.05
76476;BMP280;65308;50.078;14.854;2023-02-28T11:02:49;100374.53;;;4.04
76476;BMP280;65308;50.078;14.854;2023-02-28T11:07:56;100376.44;;;4.38
76476;BMP280;65308;50.078;14.854;2023-02-28T11:10:26;100376.13;;;4.84
76476;BMP280;65308;50.078;14.854;2023-02-28T11:12:56;100369.13;;;5.06
76476;BMP280;65308;50.078;14.854;2023-02-28T11:15:24;100379.53;;;5.32
76476;BMP280;65308;50.078;14.854;2023-02-28T11:17:57;100361.25;;;5.16
76476;BMP280;65308;50.078;14.854;2023-02-28T11:20:32;100356.84;;;5.42
76476;BMP280;65308;50.078;14.854;2023-02-28T11:23:02;100367.22;;;5.06
76476;BMP280;65308;50.078;14.854;2023-02-28T11:25:32;100361.22;;;5.09
76476;BMP280;65308;50.078;14.854;2023-02-28T11:28:01;100356.28;;;5.15
76476;BMP280;65308;50.078;14.854;2023-02-28T11:30:36;100366.91;;;4.70
76476;BMP280;65308;50.078;14.854;2023-02-28T11:33:27;100355.00;;;4.94
76476;BMP280;65308;50.078;14.854;2023-02-28T11:35:57;100349.31;;;4.48
76476;BMP280;65308;50.078;14.854;2023-02-28T11:38:36;100352.41;;;4.57
76476;BMP280;65308;50.078;14.854;2023-02-28T11:41:37;100356.72;;;4.35
76476;BMP280;65308;50.078;14.854;2023-02-28T11:44:28;100349.03;;;4.60
76476;BMP280;65308;50.078;14.854;2023-02-28T11:47:07;100341.97;;;4.38
76476;BMP280;65308;50.078;14.854;2023-02-28T11:49:43;100329.72;;;4.60
76476;BMP280;65308;50.078;14.854;2023-02-28T11:52:21;100334.09;;;4.86
76476;BMP280;65308;50.078;14.854;2023-02-28T11:57:50;100326.56;;;4.13
76476;BMP280;65308;50.078;14.854;2023-02-28T12:03:14;100331.00;;;4.02
76476;BMP280;65308;50.078;14.854;2023-02-28T12:05:45;100324.97;;;4.05
76476;BMP280;65308;50.078;14.854;2023-02-28T12:08:26;100318.66;;;3.53
76476;BMP280;65308;50.078;14.854;2023-02-28T12:13:43;100312.22;;;3.00
76476;BMP280;65308;50.078;14.854;2023-02-28T12:16:33;100306.97;;;3.27
76476;BMP280;65308;50.078;14.854;2023-02-28T12:19:13;100312.91;;;3.77
76476;BMP280;65308;50.078;14.854;2023-02-28T12:21:53;100320.19;;;3.84
76476;BMP280;65308;50.078;14.854;2023-02-28T12:25:10;100312.56;;;3.49
76476;BMP280;65308;50.078;14.854;2023-02-28T12:27:48;100315.03;;;3.38
76476;BMP280;65308;50.078;14.854;2023-02-28T12:30:21;100309.56;;;3.54
76476;BMP280;65308;50.078;14.854;2023-02-28T12:32:50;100309.59;;;3.84
76476;BMP280;65308;50.078;14.854;2023-02-28T12:35:25;100309.81;;;3.72
76476;BMP280;65308;50.078;14.854;2023-02-28T12:37:57;100311.34;;;4.06
76476;BMP280;65308;50.078;14.854;2023-02-28T12:40:33;100307.50;;;4.38
76476;BMP280;65308;50.078;14.854;2023-02-28T12:43:10;100305.88;;;3.92
76476;BMP280;65308;50.078;14.854;2023-02-28T12:45:44;100316.13;;;3.94
76476;BMP280;65308;50.078;14.854;2023-02-28T12:48:20;100310.66;;;3.79
76476;BMP280;65308;50.078;14.854;2023-02-28T12:50:50;100302.31;;;3.77
76476;BMP280;65308;50.078;14.854;2023-02-28T12:53:22;100310.72;;;3.83
76476;BMP280;65308;50.078;14.854;2023-02-28T12:56:01;100300.69;;;3.99
76476;BMP280;65308;50.078;14.854;2023-02-28T12:58:47;100302.19;;;3.66
76476;BMP280;65308;50.078;14.854;2023-02-28T13:17:09;100292.84;;;3.46
76476;BMP280;65308;50.078;14.854;2023-02-28T13:19:39;100281.28;;;3.31
76476;BMP280;65308;50.078;14.854;2023-02-28T13:22:17;100284.81;;;3.12
76476;BMP280;65308;50.078;14.854;2023-02-28T13:24:50;100275.53;;;3.26
76476;BMP280;65308;50.078;14.854;2023-02-28T13:27:25;100284.34;;;3.60
76476;BMP280;65308;50.078;14.854;2023-02-28T13:29:59;100281.94;;;3.81
76476;BMP280;65308;50.078;14.854;2023-02-28T13:38:40;100282.25;;;3.76
76476;BMP280;65308;50.078;14.854;2023-02-28T13:44:07;100279.41;;;3.62
76476;BMP280;65308;50.078;14.854;2023-02-28T13:49:28;100277.81;;;3.87
76476;BMP280;65308;50.078;14.854;2023-02-28T13:54:50;100267.97;;;3.88
76476;BMP280;65308;50.078;14.854;2023-02-28T13:57:30;100274.97;;;3.69
76476;BMP280;65308;50.078;14.854;2023-02-28T14:00:08;100273.91;;;3.74
76476;BMP280;65308;50.078;14.854;2023-02-28T14:03:05;100266.25;;;3.65
76476;BMP280;65308;50.078;14.854;2023-02-28T14:05:38;100269.13;;;3.57
76476;BMP280;65308;50.078;14.854;2023-02-28T14:08:21;100274.13;;;3.62
76476;BMP280;65308;50.078;14.854;2023-02-28T14:13:46;100267.94;;;2.97
76476;BMP280;65308;50.078;14.854;2023-02-28T14:16:21;100270.63;;;3.24
76476;BMP280;65308;50.078;14.854;2023-02-28T14:18:56;100270.75;;;3.35
76476;BMP280;65308;50.078;14.854;2023-02-28T14:21:27;100262.38;;;3.29
76476;BMP280;65308;50.078;14.854;2023-02-28T14:24:20;100274.34;;;2.96
76476;BMP280;65308;50.078;14.854;2023-02-28T14:27:02;100261.97;;;2.77
76476;BMP280;65308;50.078;14.854;2023-02-28T14:32:31;100249.72;;;3.19
76476;BMP280;65308;50.078;14.854;2023-02-28T14:35:05;100255.63;;;3.35
76476;BMP280;65308;50.078;14.854;2023-02-28T14:37:42;100255.91;;;3.57
76476;BMP280;65308;50.078;14.854;2023-02-28T14:40:15;100243.44;;;3.57
76476;BMP280;65308;50.078;14.854;2023-02-28T14:45:22;100243.03;;;2.98
76476;BMP280;65308;50.078;14.854;2023-02-28T14:47:52;100234.56;;;3.16
76476;BMP280;65308;50.078;14.854;2023-02-28T14:55:19;100247.75;;;3.69
76476;BMP280;65308;50.078;14.854;2023-02-28T15:18:40;100252.84;;;3.55
76476;BMP280;65308;50.078;14.854;2023-02-28T15:21:18;100244.69;;;3.37
76476;BMP280;65308;50.078;14.854;2023-02-28T15:23:50;100250.34;;;3.65
76476;BMP280;65308;50.078;14.854;2023-02-28T15:26:31;100244.63;;;3.60
76476;BMP280;65308;50.078;14.854;2023-02-28T15:57:44;100222.94;;;2.71
76476;BMP280;65308;50.078;14.854;2023-02-28T16:00:15;100228.00;;;2.79
76476;BMP280;65308;50.078;14.854;2023-02-28T16:02:44;100229.19;;;2.82
76476;BMP280;65308;50.078;14.854;2023-02-28T16:05:21;100242.63;;;2.96
76476;BMP280;65308;50.078;14.854;2023-02-28T16:07:53;100233.75;;;2.85
76476;BMP280;65308;50.078;14.854;2023-02-28T16:10:21;100239.66;;;2.75
76476;BMP280;65308;50.078;14.854;2023-02-28T17:35:29;100277.06;;;2.11
76476;BMP280;65308;50.078;14.854;2023-02-28T17:37:57;100283.72;;;2.05
76476;BMP280;65308;50.078;14.854;2023-02-28T17:40:27;100277.75;;;2.08
76476;BMP280;65308;50.078;14.854;2023-02-28T17:48:59;100278.78;;;2.04
76476;BMP280;65308;50.078;14.854;2023-02-28T18:14:13;100287.34;;;1.97
76476;BMP280;65308;50.078;14.854;2023-02-28T18:19:30;100276.97;;;1.88
76476;BMP280;65308;50.078;14.854;2023-02-28T18:24:45;100280.31;;;1.85
76476;BMP280;65308;50.078;14.854;2023-02-28T18:27:44;100274.75;;;1.71
76476;BMP280;65308;50.078;14.854;2023-02-28T19:16:31;100276.13;;;0.38
76476;BMP280;65308;50.078;14.854;2023-02-28T19:18:58;100276.53;;;0.40
76476;BMP280;65308;50.078;14.854;2023-02-28T19:21:27;100282.81;;;0.35
76476;BMP280;65308;50.078;14.854;2023-02-28T19:23:57;100279.94;;;0.40
76476;BMP280;65308;50.078;14.854;2023-02-28T19:26:24;100270.50;;;0.39
76476;BMP280;65308;50.078;14.854;2023-02-28T19:28:53;100277.31;;;0.40
76476;BMP280;65308;50.078;14.854;2023-02-28T19:31:21;100271.16;;;0.36
76476;BMP280;65308;50.078;14.854;2023-02-28T19:33:49;100275.00;;;0.39
76476;BMP280;65308;50.078;14.854;2023-02-28T19:36:17;100276.88;;;0.38
76476;BMP280;65308;50.078;14.854;2023-02-28T19:38:44;100278.31;;;0.36
76476;BMP280;65308;50.078;14.854;2023-02-28T19:41:25;100279.81;;;0.37
76476;BMP280;65308;50.078;14.854;2023-02-28T19:44:10;100277.75;;;0.43
76476;BMP280;65308;50.078;14.854;2023-02-28T19:46:37;100275.44;;;0.41
76476;BMP280;65308;50.078;14.854;2023-02-28T19:49:06;100271.41;;;0.31
76476;BMP280;65308;50.078;14.854;2023-02-28T19:51:33;100269.88;;;0.30
76476;BMP280;65308;50.078;14.854;2023-02-28T19:53:59;100277.34;;;0.28
76476;BMP280;65308;50.078;14.854;2023-02-28T19:56:26;100273.13;;;0.24
76476;BMP280;65308;50.078;14.854;2023-02-28T19:58:56;100281.78;;;0.24
76476;BMP280;65308;50.078;14.854;2023-02-28T20:01:23;100280.38;;;0.14
76476;BMP280;65308;50.078;14.854;2023-02-28T20:03:50;100280.38;;;0.14
76476;BMP280;65308;50.078;14.854;2023-02-28T20:06:18;100277.63;;;0.23
76476;BMP280;65308;50.078;14.854;2023-02-28T20:08:48;100283.22;;;0.22
76476;BMP280;65308;50.078;14.854;2023-02-28T20:11:16;100292.03;;;0.13
76476;BMP280;65308;50.078;14.854;2023-02-28T20:13:44;100300.44;;;0.19
76476;BMP280;65308;50.078;14.854;2023-02-28T20:16:12;100292.56;;;0.19
76476;BMP280;65308;50.078;14.854;2023-02-28T20:18:40;100288.81;;;0.20
76476;BMP280;65308;50.078;14.854;2023-02-28T20:21:21;100291.97;;;0.26
76476;BMP280;65308;50.078;14.854;2023-02-28T20:23:52;100302.16;;;0.27
76476;BMP280;65308;50.078;14.854;2023-02-28T20:26:29;100287.81;;;0.25
76476;BMP280;65308;50.078;14.854;2023-02-28T20:29:04;100290.84;;;0.27
76476;BMP280;65308;50.078;14.854;2023-02-28T20:34:12;100283.09;;;0.18
76476;BMP280;65308;50.078;14.854;2023-02-28T21:01:56;100283.84;;;-0.34
76476;BMP280;65308;50.078;14.854;2023-02-28T21:04:26;100289.00;;;-0.38
76476;BMP280;65308;50.078;14.854;2023-02-28T21:06:53;100285.19;;;-0.40
76476;BMP280;65308;50.078;14.854;2023-02-28T21:09:22;100290.44;;;-0.40
76476;BMP280;65308;50.078;14.854;2023-02-28T21:11:52;100291.88;;;-0.43
76476;BMP280;65308;50.078;14.854;2023-02-28T21:16:51;100291.31;;;-0.49
76476;BMP280;65308;50.078;14.854;2023-02-28T21:19:19;100296.91;;;-0.50
76476;BMP280;65308;50.078;14.854;2023-02-28T21:21:48;100287.81;;;-0.53
76476;BMP280;65308;50.078;14.854;2023-02-28T21:24:17;100302.06;;;-0.54
76476;BMP280;65308;50.078;14.854;2023-02-28T21:26:44;100293.50;;;-0.63
76476;BMP280;65308;50.078;14.854;2023-02-28T21:29:12;100292.81;;;-0.72
76476;BMP280;65308;50.078;14.854;2023-02-28T21:31:39;100297.13;;;-0.80
76476;BMP280;65308;50.078;14.854;2023-02-28T21:34:10;100288.13;;;-0.91
76476;BMP280;65308;50.078;14.854;2023-02-28T21:36:38;100289.53;;;-0.94
76476;BMP280;65308;50.078;14.854;2023-02-28T21:39:07;100287.13;;;-0.99
76476;BMP280;65308;50.078;14.854;2023-02-28T21:41:35;100288.44;;;-1.05
76476;BMP280;65308;50.078;14.854;2023-02-28T21:44:03;100281.53;;;-1.09
76476;BMP280;65308;50.078;14.854;2023-02-28T21:46:30;100281.75;;;-1.15
76476;BMP280;65308;50.078;14.854;2023-02-28T21:48:58;100284.75;;;-1.25
76476;BMP280;65308;50.078;14.854;2023-02-28T21:51:27;100288.81;;;-1.27